Terminal Aerodrome Forecast
Issued by NWS Shreveport, LA

Home | Current Version | Previous Version | Text Only | Print | Product List | Glossary On
Versions: 1 2 3 4 5 6 7 8 9 10 11 12 13 14 15 16 17
000
FTUS44 KSHV 182344
TAFELD
TAF
KELD 182344Z 1900/1924 23007KT P6SM FEW250
     FM190200 20003KT P6SM SCT250
      TEMPO 1910/1913 6SM BR
     FM191300 23004KT P6SM BKN050 BKN250
     FM191600 25007KT P6SM FEW060 SCT250=

USA.gov is the U.S. government's official web portal to all federal, state and local government web resources and services.